Metar Cercanos

 

LEPA - Palma De Mallorc, Spain
Distance from station: ONO 38km
Actualización: 27/05/2018 05:00
Muy nuboso
Muy nuboso
 Viento del varies
Viento: varies 2 km/h
Temperatura: 20°C
Rocío: 17°C
Humedad: 83%
Barómetro: 1011 hPa
Clouds: Muy nuboso
Visibility: 10 km
Cloud details: Muy nuboso 518 m
2018/05/27 03:00 LEPA 270300Z VRB01KT 9999 BKN017 20/17 Q1011 NOSIG
LEMH - Mahon/Menorca Is, Spain
Distance from station: ENE 105km
Actualización: 27/05/2018 05:00
Despejado
Despejado
 Viento del ENE
Viento: ENE 11 km/h
Temperatura: 18°C
Rocío: 17°C
Humedad: 94%
Barómetro: 1011 hPa
Clouds: Despejado
Visibility: 10 km
2018/05/27 03:00 LEMH 270300Z AUTO 07006KT 9999 NCD 18/17 Q1011
 
LEIB - Ibiza/Es Codola, Spain
Distance from station: OSO 165km
Actualización: 27/05/2018 05:00
Muy nuboso
Muy nuboso
 Viento del NNO
Viento: NNO 6 km/h
Temperatura: 20°C
Rocío: 16°C
Humedad: 78%
Barómetro: 1011 hPa
Clouds: Muy nuboso
Visibility: 10 km
Cloud details: Few Clouds 457 m
Muy nuboso 671 m
2018/05/27 03:00 LEIB 270300Z 33003KT 290V010 9999 FEW015 BKN022 20/16 Q1011 NOSIG
LEBL - Barcelona Airpor, Spain
Distance from station: NNO 225km
Actualización: 27/05/2018 05:00
Few Clouds
Few Clouds
 Viento del ENE
Viento: ENE 17 km/h
Temperatura: 19°C
Rocío: 15°C
Humedad: 78%
Barómetro: 1012 hPa
Clouds: Few Clouds
Visibility: 10 km
Cloud details: Few Clouds 762 m
2018/05/27 03:00 LEBL 270300Z 06009KT 040V100 9999 FEW025 19/15 Q1012 NOSIG
 
LEVC - Valencia (civ/Mi, Spain
Distance from station: NO 188km
Actualización: 27/05/2018 05:00
Few Clouds
Few Clouds
 Viento del varies
Viento: varies 2 km/h
Temperatura: 18°C
Rocío: 16°C
Humedad: 88%
Barómetro: 1012 hPa
Clouds: Few Clouds
Visibility: 10 km
Cloud details: Few Clouds 610 m
2018/05/27 03:00 LEVC 270300Z VRB01KT 9999 FEW020 18/16 Q1012 NOSIG
LEGE - Gerona/Costa Bra, Spain
Distance from station: N 276km
Actualización: 27/05/2018 05:00
Mist, Few clouds
Mist, Few clouds
 Viento del NNE
Viento: NNE 13 km/h
Temperatura: 16°C
Rocío: 16°C
Humedad: 100%
Barómetro: 1014 hPa
Resumen: Mist
Clouds: Few Clouds
Visibility: 4 km
Cloud details: Few Clouds 122 m
2018/05/27 03:00 LEGE 270300Z 02007KT 350V050 4000 BR FEW004 16/16 Q1014
 
LEAL - Alicante/El Alte, Spain
Distance from station: OSO 344km
Actualización: 27/05/2018 05:00
Few Clouds
Few Clouds
 Viento del O
Viento: O 6 km/h
Temperatura: 17°C
Rocío: 16°C
Humedad: 94%
Barómetro: 1011 hPa
Clouds: Few Clouds
Visibility: 10 km
Cloud details: Few Clouds 549 m
2018/05/27 03:00 LEAL 270300Z 27003KT 9999 FEW018 17/16 Q1011 NOSIG
LEAM - Almeria Airport, Spain
Distance from station: SSO 56km
Actualización: 27/05/2018 05:00
Few Clouds
Few Clouds
 Viento del S
Viento: S 7 km/h
Temperatura: 19°C
Rocío: 17°C
Humedad: 88%
Barómetro: 1013 hPa
Clouds: Few Clouds
Visibility: 10 km
Cloud details: Few Clouds 305 m
2018/05/27 03:00 LEAM 270300Z 17004KT 120V210 9999 FEW010 19/17 Q1013
 
LEZG - Zaragoza (mil/Ci, Spain
Distance from station: NO 431km
Actualización: 27/05/2018 05:00
Few Clouds
Few Clouds
 Viento del OSO
Viento: OSO 7 km/h
Temperatura: 15°C
Rocío: 14°C
Humedad: 94%
Barómetro: 1013 hPa
Clouds: Few Clouds
Visibility: 10 km
Cloud details: Few Clouds 610 m
2018/05/27 03:00 LEZG 270300Z 24004KT 9999 FEW020 15/14 Q1013
LEMD - Madrid/Barajas, Spain
Distance from station: ONO 234km
Actualización: 27/05/2018 05:00
Despejado
Despejado
 Viento del NNO
Viento: NNO 7 km/h
Temperatura: 12°C
Rocío: 11°C
Humedad: 94%
Barómetro: 1014 hPa
Resumen: Despejado
Visibility: greater than 10 km
2018/05/27 03:00 LEMD 270300Z 33004KT CAVOK 12/11 Q1014 NOSIG
 
LEGR - Granada Airport, Spain
Distance from station: OSO 62km
Actualización: 27/05/2018 05:00
Muy nuboso
Muy nuboso
 Viento del S
Viento: S 4 km/h
Temperatura: 15°C
Rocío: 12°C
Humedad: 82%
Barómetro: 1014 hPa
Clouds: Muy nuboso
Visibility: 8 km
Cloud details: Muy nuboso 2286 m
2018/05/27 03:00 LEGR 270300Z AUTO 19002KT 8000 BKN075 15/12 Q1014
LEMG - Malaga (civ/Mil), Spain
Distance from station: OSO 227km
Actualización: 27/05/2018 05:00
Muy nuboso
Muy nuboso
 Viento del ESE
Viento: ESE 6 km/h
Temperatura: 19°C
Rocío: 16°C
Humedad: 83%
Barómetro: 1013 hPa
Clouds: Muy nuboso
Visibility: 10 km
Cloud details: Muy nuboso 2286 m
2018/05/27 03:00 LEMG 270300Z 11003KT 080V170 9999 BKN075 19/16 Q1013 NOSIG
 
LEZL - Sevilla (civ/Mil, Spain
Distance from station: S 318km
Actualización: 27/05/2018 05:00
Parcialmente nuboso
Parcialmente nuboso
 Viento del SO
Viento: SO 6 km/h
Temperatura: 16°C
Rocío: 15°C
Humedad: 94%
Barómetro: 1013 hPa
Clouds: Parcialmente nuboso
Visibility: 10 km
Cloud details: Parcialmente nuboso 1372 m
2018/05/27 03:00 LEZL 270300Z 22003KT 180V250 9999 SCT045 16/15 Q1013 NOSIG
LEVT - Vitoria, Spain
Distance from station: NO 226km
Actualización: 27/05/2018 05:00
Patches of fog, Mist, Muy nuboso
Patches of fog, Mist, Muy nuboso
 Viento del calm
Viento: Calma
Temperatura: 10°C
Rocío: 10°C
Humedad: 100%
Barómetro: 1015 hPa
Resumen: Patches of fog, Mist
Clouds: Muy nuboso
Visibility: 1 km
Cloud details: Muy nuboso 122 m
2018/05/27 03:00 LEVT 270300Z 00000KT 1200 R04/P2000 R22/P2000 BCFG BR BKN004 10/10 Q1015
 
LEBB - Bilbao/Sondica, Spain
Distance from station: NNO 235km
Actualización: 27/05/2018 05:00
Muy nuboso
Muy nuboso
 Viento del SE
Viento: SE 6 km/h
Temperatura: 15°C
Rocío: 14°C
Humedad: 94%
Barómetro: 1015 hPa
Clouds: Muy nuboso
Visibility: 7 km
Cloud details: Few Clouds 305 m
Muy nuboso 762 m
2018/05/27 03:00 LEBB 270300Z 13003KT 7000 FEW010 BKN025 15/14 Q1015 TEMPO 3000 BR
LESO - San Sebastian/Fu, Spain
Distance from station: N 231km
Actualización: 27/05/2018 05:00
Lluvia débil, Muy nuboso
Lluvia débil, Muy nuboso
 Viento del varies
Viento: varies 4 km/h
Temperatura: 16°C
Rocío: 15°C
Humedad: 94%
Barómetro: 1015 hPa
Resumen: Lluvia débil
Clouds: Muy nuboso
Visibility: 6 km
Cloud details: Muy nuboso 701 m
Muy nuboso 1981 m
2018/05/27 03:00 LESO 270300Z AUTO VRB02KT 6000 -RA BKN023/// BKN065/// 16/15 Q1015
 
LEVD - Valladolid(Mil/C, Spain
Distance from station: ONO 239km
Actualización: 26/05/2018 21:30
NOT Current
Nearby showers, Few clouds
Nearby showers, Few clouds
 Viento del S
Viento: S 7 km/h
Temperatura: 16°C
Rocío: 10°C
Humedad: 68%
Barómetro: 1014 hPa
Resumen: Nearby Showers
Clouds: Few Clouds
Visibility: 10 km
Cloud details: Parcialmente nuboso 1219 m
Few Clouds 1463 m
2018/05/26 19:30 LEVD 261930Z 19004KT 9999 VCSH SCT040 FEW048CB 16/10 Q1014
LESA - Salamanca (civ/M, Spain
Distance from station: ONO 349km
Actualización: 26/05/2018 21:00
NOT Current
Few Clouds
Few Clouds
 Viento del NO
Viento: NO 15 km/h
Temperatura: 17°C
Rocío: 9°C
Humedad: 59%
Barómetro: 1014 hPa
Clouds: Few Clouds
Visibility: 10 km
Cloud details: Few Clouds 1372 m
2018/05/26 19:00 LESA 261900Z 31008KT 9999 FEW045 17/09 Q1014
 
LEXJ - Santander/Paraya, Spain
Distance from station: NNO 247km
Actualización: 27/05/2018 05:00
Mist, Cubierto
Mist, Cubierto
 Viento del varies
Viento: varies 2 km/h
Temperatura: 16°C
Rocío: 16°C
Humedad: 100%
Barómetro: 1014 hPa
Resumen: Mist
Clouds: Cubierto
Visibility: 5 km
Cloud details: Parcialmente nuboso 427 m
Cubierto 1128 m
2018/05/27 03:00 LEXJ 270300Z AUTO VRB01KT 4900 BR SCT014/// OVC037/// 16/16 Q1014
LEAS - Asturias/Aviles, Spain
Distance from station: NO 214km
Actualización: 27/05/2018 05:00
Mist, Cubierto
Mist, Cubierto
 Viento del ONO
Viento: ONO 7 km/h
Temperatura: 14°C
Rocío: 13°C
Humedad: 94%
Barómetro: 1014 hPa
Resumen: Mist
Clouds: Cubierto
Visibility: 5 km
Cloud details: Cubierto 1067 m
2018/05/27 03:00 LEAS 270300Z AUTO 29004KT 260V320 4800 BR OVC035/// 14/13 Q1014
 
LECO - La Coruna/Alvedr, Spain
Distance from station: ONO 222km
Actualización: 27/05/2018 05:00
Muy nuboso
Muy nuboso
 Viento del varies
Viento: varies 4 km/h
Temperatura: 14°C
Rocío: 13°C
Humedad: 94%
Barómetro: 1015 hPa
Clouds: Muy nuboso
Visibility: 10 km
Cloud details: Few Clouds 305 m
Parcialmente nuboso 640 m
Muy nuboso 853 m
2018/05/27 03:00 LECO 270300Z AUTO VRB02KT 9999 FEW010/// SCT021/// BKN028/// 14/13 Q1015
LEVX - Vigo/Peinador, Spain
Distance from station: O 214km
Actualización: 27/05/2018 05:00
Parcialmente nuboso
Parcialmente nuboso
 Viento del calm
Viento: Calma
Temperatura: 13°C
Rocío: 12°C
Humedad: 94%
Barómetro: 1014 hPa
Clouds: Parcialmente nuboso
Visibility: 7 km
Cloud details: Few Clouds 671 m
Parcialmente nuboso 1067 m
2018/05/27 03:00 LEVX 270300Z 00000KT 7000 FEW022 SCT035 13/12 Q1014 NOSIG